Aviation Digital Data Service (ADDS)

Output produced by METARs form (1017 UTC 24 October 2014)
found at http://aviationweather.gov/adds/metars/
 
KBDL 240830Z 2409/2512 33007KT P6SM SCT035 OVC045 
     FM242100 33009KT P6SM BKN050 
     FM250300 32006KT P6SM SCT250